createdAt,value
2023-05-11T00:00:13.617Z,8.30
2023-05-11T00:05:42.555Z,8.30
2023-05-11T00:11:10.840Z,8.20
2023-05-11T00:16:38.888Z,8.20
2023-05-11T00:22:07.746Z,8.20
2023-05-11T00:27:35.849Z,8.20
2023-05-11T00:33:04.219Z,8.20
2023-05-11T00:38:32.448Z,8.20
2023-05-11T00:44:00.687Z,8.20
2023-05-11T00:49:31.295Z,8.20
2023-05-11T00:54:59.520Z,8.20
2023-05-11T01:00:27.716Z,8.20
2023-05-11T01:06:11.376Z,8.20
2023-05-11T01:12:04.016Z,8.10
2023-05-11T01:18:03.646Z,8.10
2023-05-11T01:24:26.590Z,8.10
2023-05-11T01:29:56.008Z,8.10
2023-05-11T01:35:26.743Z,8.10
2023-05-11T01:40:56.943Z,8.10
2023-05-11T01:46:27.595Z,8.10
2023-05-11T01:51:58.979Z,8.10
2023-05-11T01:57:28.581Z,8.10
2023-05-11T02:02:59.714Z,8.10
2023-05-11T02:08:31.367Z,8.10
2023-05-11T02:14:00.486Z,8.10
2023-05-11T02:19:31.838Z,8.10
2023-05-11T02:25:00.181Z,8.10
2023-05-11T02:30:33.352Z,8.10
2023-05-11T02:36:03.826Z,8.10
2023-05-11T02:41:41.442Z,8.10
2023-05-11T02:47:13.382Z,8.00
2023-05-11T02:52:45.572Z,8.00
2023-05-11T02:58:14.334Z,8.00
2023-05-11T03:03:46.936Z,8.00
2023-05-11T03:09:16.069Z,7.90
2023-05-11T03:14:48.703Z,7.90
2023-05-11T03:20:19.942Z,7.90
2023-05-11T03:25:48.333Z,7.80
2023-05-11T03:31:16.869Z,7.80
2023-05-11T03:36:51.282Z,7.70
2023-05-11T03:42:21.253Z,7.70
2023-05-11T03:47:51.792Z,7.70
2023-05-11T03:53:21.204Z,7.60
2023-05-11T03:58:50.250Z,7.60
2023-05-11T04:04:20.430Z,7.60
2023-05-11T04:09:48.378Z,7.60
2023-05-11T04:15:16.759Z,7.50
2023-05-11T04:20:46.673Z,7.50
2023-05-11T04:26:17.558Z,7.50
2023-05-11T04:31:46.474Z,7.50
2023-05-11T04:37:14.742Z,7.50
2023-05-11T04:42:43.639Z,7.50
2023-05-11T04:48:19.563Z,7.40
2023-05-11T04:53:48.649Z,7.50
2023-05-11T04:59:16.923Z,7.50
2023-05-11T05:04:45.626Z,7.40
2023-05-11T05:10:14.384Z,7.40
2023-05-11T05:15:43.137Z,7.40
2023-05-11T05:21:11.291Z,7.40
2023-05-11T05:26:39.776Z,7.40
2023-05-11T05:32:08.897Z,7.40
2023-05-11T05:37:39.893Z,7.40
2023-05-11T05:43:08.185Z,7.50
2023-05-11T05:48:36.925Z,7.50
2023-05-11T05:54:05.137Z,7.50
2023-05-11T05:59:34.696Z,7.40
2023-05-11T06:05:03.381Z,7.40
2023-05-11T06:10:32.907Z,7.40
2023-05-11T06:16:00.698Z,7.40
2023-05-11T06:21:33.758Z,7.40
2023-05-11T06:27:02.946Z,7.40
2023-05-11T06:32:34.367Z,7.40
2023-05-11T06:38:04.232Z,7.50
2023-05-11T06:43:33.724Z,7.50
2023-05-11T06:49:04.057Z,7.50
2023-05-11T06:54:31.840Z,7.50
2023-05-11T07:00:00.828Z,7.50
2023-05-11T07:05:29.601Z,7.40
2023-05-11T07:10:57.906Z,7.50
2023-05-11T07:16:27.289Z,7.50
2023-05-11T07:21:55.521Z,7.50
2023-05-11T07:27:23.653Z,7.60
2023-05-11T07:32:51.840Z,7.60
2023-05-11T07:38:20.095Z,7.70
2023-05-11T07:43:48.593Z,7.80
2023-05-11T07:49:20.842Z,7.90
2023-05-11T07:54:58.270Z,8.00
2023-05-11T08:00:30.116Z,8.00
2023-05-11T08:05:58.568Z,8.00
2023-05-11T08:11:27.628Z,8.10
2023-05-11T08:16:55.621Z,8.20
2023-05-11T08:22:24.073Z,8.30
2023-05-11T08:27:52.195Z,8.30
2023-05-11T08:33:36.697Z,8.30
2023-05-11T08:39:06.698Z,8.40
2023-05-11T08:44:37.921Z,8.40
2023-05-11T08:50:06.775Z,8.40
2023-05-11T08:55:35.251Z,8.60
2023-05-11T09:01:04.821Z,8.70
2023-05-11T09:06:33.573Z,8.70
2023-05-11T09:12:02.202Z,8.80
2023-05-11T09:17:35.741Z,8.80
2023-05-11T09:23:04.017Z,8.80
2023-05-11T09:28:35.893Z,8.90
2023-05-11T09:34:23.726Z,8.90
2023-05-11T09:40:24.988Z,9.00
2023-05-11T09:45:49.992Z,9.00
2023-05-11T09:51:34.041Z,9.00
2023-05-11T09:57:04.713Z,9.10
2023-05-11T10:02:33.766Z,9.10
2023-05-11T10:08:06.176Z,9.00
2023-05-11T10:13:35.959Z,9.00
2023-05-11T10:19:04.478Z,9.00
2023-05-11T10:24:33.898Z,9.10
2023-05-11T10:30:03.978Z,9.10
2023-05-11T10:35:33.049Z,9.10
2023-05-11T10:41:20.348Z,9.10
2023-05-11T10:47:15.099Z,9.20
2023-05-11T10:53:30.168Z,9.20
2023-05-11T10:59:39.040Z,9.20
2023-05-11T11:05:10.841Z,9.20
2023-05-11T11:10:39.807Z,9.30
2023-05-11T11:16:08.079Z,9.40
2023-05-11T11:21:43.220Z,9.40
2023-05-11T11:27:12.385Z,9.50
2023-05-11T11:32:40.598Z,9.50
2023-05-11T11:38:11.224Z,9.50
2023-05-11T11:43:46.242Z,9.50
2023-05-11T11:49:14.471Z,9.40
2023-05-11T11:54:44.604Z,9.50
2023-05-11T12:00:13.275Z,9.50
2023-05-11T12:05:45.501Z,9.50
2023-05-11T12:11:17.945Z,9.50
2023-05-11T12:17:13.678Z,9.50
2023-05-11T12:22:42.054Z,9.40
2023-05-11T12:28:12.586Z,9.40
2023-05-11T12:33:51.462Z,9.40
2023-05-11T12:39:27.698Z,9.40
2023-05-11T12:44:56.306Z,9.40
2023-05-11T12:50:24.477Z,9.50
2023-05-11T12:55:59.903Z,9.50
2023-05-11T13:01:29.139Z,9.50
2023-05-11T13:06:57.167Z,9.40
2023-05-11T13:12:25.950Z,9.40
2023-05-11T13:17:59.534Z,9.50
2023-05-11T13:23:27.855Z,9.50
2023-05-11T13:29:09.618Z,9.50
2023-05-11T13:34:38.995Z,9.40
2023-05-11T13:40:10.783Z,9.40
2023-05-11T13:45:41.248Z,9.40
2023-05-11T13:51:09.107Z,9.40
2023-05-11T13:56:37.304Z,9.40
2023-05-11T14:02:05.690Z,9.50
2023-05-11T14:07:45.561Z,9.50
2023-05-11T14:13:14.967Z,9.60
2023-05-11T14:18:43.065Z,9.60
2023-05-11T14:24:12.527Z,9.60
2023-05-11T14:29:43.963Z,9.60
2023-05-11T14:35:12.364Z,9.60
2023-05-11T14:40:40.116Z,9.60
2023-05-11T14:46:08.627Z,9.60
2023-05-11T14:51:39.436Z,9.60
2023-05-11T14:57:07.659Z,9.60
2023-05-11T15:02:35.985Z,9.50
2023-05-11T15:08:04.293Z,9.50
2023-05-11T15:13:32.436Z,9.50
2023-05-11T15:19:00.756Z,9.50
2023-05-11T15:24:28.925Z,9.50
2023-05-11T15:29:56.700Z,9.60
2023-05-11T15:35:24.953Z,9.60
2023-05-11T15:40:52.799Z,9.70
2023-05-11T15:46:21.655Z,9.60
2023-05-11T15:51:49.936Z,9.60
2023-05-11T15:57:18.145Z,9.50
2023-05-11T16:02:48.956Z,9.50
2023-05-11T16:08:17.552Z,9.50
2023-05-11T16:13:45.928Z,9.60
2023-05-11T16:19:14.189Z,9.60
2023-05-11T16:24:42.397Z,9.60
2023-05-11T16:30:22.356Z,9.60
2023-05-11T16:35:52.961Z,9.70
2023-05-11T16:41:21.290Z,9.70
2023-05-11T16:46:49.302Z,9.70
2023-05-11T16:52:17.968Z,9.70
2023-05-11T16:57:47.066Z,9.70
2023-05-11T17:03:15.343Z,9.70
2023-05-11T17:08:45.023Z,9.60
2023-05-11T17:14:13.201Z,9.60
2023-05-11T17:19:41.329Z,9.60
2023-05-11T17:25:09.776Z,9.60
2023-05-11T17:30:48.148Z,9.70
2023-05-11T17:36:17.258Z,9.70
2023-05-11T17:41:45.144Z,9.70
2023-05-11T17:47:13.689Z,9.70
2023-05-11T17:52:41.966Z,9.70
2023-05-11T17:58:10.722Z,9.70
2023-05-11T18:03:41.917Z,9.70
2023-05-11T18:09:12.781Z,9.70
2023-05-11T18:14:42.753Z,9.80
2023-05-11T18:20:11.555Z,9.80
2023-05-11T18:25:40.071Z,9.80
2023-05-11T18:31:08.190Z,9.80
2023-05-11T18:36:36.224Z,9.70
2023-05-11T18:42:06.843Z,9.70
2023-05-11T18:47:35.725Z,9.70
2023-05-11T18:53:04.620Z,9.70
2023-05-11T18:58:32.547Z,9.70
2023-05-11T19:04:01.043Z,9.70
2023-05-11T19:09:28.954Z,9.70
2023-05-11T19:15:00.974Z,9.70
2023-05-11T19:20:31.264Z,9.70
2023-05-11T19:26:00.588Z,9.70
2023-05-11T19:31:31.581Z,9.60
2023-05-11T19:36:59.729Z,9.60
2023-05-11T19:42:39.459Z,9.60
2023-05-11T19:48:08.235Z,9.60
2023-05-11T19:53:36.655Z,9.60
2023-05-11T19:59:05.339Z,9.50
2023-05-11T20:04:36.212Z,9.50
2023-05-11T20:10:09.149Z,9.50
2023-05-11T20:15:40.844Z,9.50
2023-05-11T20:21:09.832Z,9.50
2023-05-11T20:26:37.744Z,9.50
2023-05-11T20:32:07.712Z,9.50
2023-05-11T20:37:36.379Z,9.50
2023-05-11T20:43:06.512Z,9.50
2023-05-11T20:48:40.468Z,9.60
2023-05-11T20:54:11.713Z,9.60
2023-05-11T21:05:13.720Z,9.50
2023-05-11T21:10:42.414Z,9.50
2023-05-11T21:16:12.276Z,9.50
2023-05-11T21:21:41.181Z,9.50
2023-05-11T21:27:09.449Z,9.50
2023-05-11T21:32:40.581Z,9.50
2023-05-11T21:38:14.897Z,9.50
2023-05-11T21:43:43.160Z,9.50
2023-05-11T21:49:12.032Z,9.40
2023-05-11T21:54:40.325Z,9.50
2023-05-11T22:00:09.855Z,9.50
2023-05-11T22:05:38.052Z,9.40
2023-05-11T22:11:09.836Z,9.40
2023-05-11T22:16:39.011Z,9.40
2023-05-11T22:22:08.998Z,9.50
2023-05-11T22:27:37.038Z,9.50
2023-05-11T22:33:06.949Z,9.50
2023-05-11T22:38:37.664Z,9.40
2023-05-11T22:44:08.886Z,9.40
2023-05-11T22:49:37.057Z,9.40
2023-05-11T22:55:05.741Z,9.40
2023-05-11T23:00:36.095Z,9.40
2023-05-11T23:06:11.615Z,9.40
2023-05-11T23:11:40.375Z,9.40
2023-05-11T23:17:08.352Z,9.30
2023-05-11T23:22:37.239Z,9.30
2023-05-11T23:28:11.501Z,9.30
2023-05-11T23:33:39.901Z,9.30
2023-05-11T23:39:09.716Z,9.30
2023-05-11T23:44:37.931Z,9.30
2023-05-11T23:50:07.443Z,9.30
2023-05-11T23:55:35.791Z,9.30
